sensor_id;sensor_type;location;lat;lon;timestamp;pressure;altitude;pressure_sealevel;temperature;humidity
73981;BME280;62348;51.412;5.436;2022-08-01T00:01:31;101508.00;;;19.44;79.27
73981;BME280;62348;51.412;5.436;2022-08-01T00:03:56;101504.16;;;19.45;79.13
73981;BME280;62348;51.412;5.436;2022-08-01T00:06:22;101511.03;;;19.42;79.38
73981;BME280;62348;51.412;5.436;2022-08-01T00:08:47;101510.44;;;19.45;79.18
73981;BME280;62348;51.412;5.436;2022-08-01T00:11:12;101503.84;;;19.46;79.09
73981;BME280;62348;51.412;5.436;2022-08-01T00:13:39;101509.00;;;19.48;79.03
73981;BME280;62348;51.412;5.436;2022-08-01T00:16:04;101507.09;;;19.48;79.06
73981;BME280;62348;51.412;5.436;2022-08-01T00:18:30;101504.34;;;19.48;79.04
73981;BME280;62348;51.412;5.436;2022-08-01T00:20:55;101506.06;;;19.44;79.09
73981;BME280;62348;51.412;5.436;2022-08-01T00:23:20;101512.88;;;19.47;79.26
73981;BME280;62348;51.412;5.436;2022-08-01T00:25:46;101517.03;;;19.44;79.31
73981;BME280;62348;51.412;5.436;2022-08-01T00:28:11;101511.25;;;19.46;79.30
73981;BME280;62348;51.412;5.436;2022-08-01T00:30:38;101512.06;;;19.46;79.15
73981;BME280;62348;51.412;5.436;2022-08-01T00:33:04;101518.66;;;19.45;79.27
73981;BME280;62348;51.412;5.436;2022-08-01T00:35:29;101508.91;;;19.39;79.43
73981;BME280;62348;51.412;5.436;2022-08-01T00:37:54;101520.09;;;19.43;79.40
73981;BME280;62348;51.412;5.436;2022-08-01T00:40:20;101519.78;;;19.44;79.41
73981;BME280;62348;51.412;5.436;2022-08-01T00:42:46;101518.75;;;19.40;79.45
73981;BME280;62348;51.412;5.436;2022-08-01T00:45:11;101522.34;;;19.41;79.71
73981;BME280;62348;51.412;5.436;2022-08-01T00:47:37;101519.06;;;19.39;79.63
73981;BME280;62348;51.412;5.436;2022-08-01T00:50:06;101513.56;;;19.39;79.80
73981;BME280;62348;51.412;5.436;2022-08-01T00:52:32;101517.44;;;19.38;79.86
73981;BME280;62348;51.412;5.436;2022-08-01T00:54:58;101520.19;;;19.38;79.77
73981;BME280;62348;51.412;5.436;2022-08-01T00:57:24;101516.63;;;19.37;80.01
73981;BME280;62348;51.412;5.436;2022-08-01T00:59:50;101521.28;;;19.37;80.07
73981;BME280;62348;51.412;5.436;2022-08-01T01:02:17;101517.75;;;19.36;79.92
73981;BME280;62348;51.412;5.436;2022-08-01T01:04:43;101517.75;;;19.36;79.95
73981;BME280;62348;51.412;5.436;2022-08-01T01:09:56;101517.25;;;19.34;80.08
73981;BME280;62348;51.412;5.436;2022-08-01T01:12:33;101514.28;;;19.30;80.03
73981;BME280;62348;51.412;5.436;2022-08-01T01:15:33;101515.94;;;19.31;79.97
73981;BME280;62348;51.412;5.436;2022-08-01T01:18:23;101518.88;;;19.35;79.75
73981;BME280;62348;51.412;5.436;2022-08-01T01:21:00;101517.03;;;19.30;80.21
73981;BME280;62348;51.412;5.436;2022-08-01T01:26:52;101509.44;;;19.27;80.21
73981;BME280;62348;51.412;5.436;2022-08-01T01:29:26;101515.72;;;19.28;80.40
73981;BME280;62348;51.412;5.436;2022-08-01T01:32:20;101516.44;;;19.34;79.77
73981;BME280;62348;51.412;5.436;2022-08-01T01:34:49;101514.59;;;19.29;80.48
73981;BME280;62348;51.412;5.436;2022-08-01T01:37:18;101518.97;;;19.30;80.33
73981;BME280;62348;51.412;5.436;2022-08-01T01:39:44;101512.47;;;19.26;80.38
73981;BME280;62348;51.412;5.436;2022-08-01T01:42:12;101512.16;;;19.27;80.38
73981;BME280;62348;51.412;5.436;2022-08-01T01:44:40;101521.78;;;19.25;80.89
73981;BME280;62348;51.412;5.436;2022-08-01T01:47:06;101520.06;;;19.29;80.50
73981;BME280;62348;51.412;5.436;2022-08-01T01:49:32;101524.25;;;19.26;80.42
73981;BME280;62348;51.412;5.436;2022-08-01T01:52:00;101526.06;;;19.31;80.25
73981;BME280;62348;51.412;5.436;2022-08-01T01:54:33;101518.97;;;19.30;80.31
73981;BME280;62348;51.412;5.436;2022-08-01T01:57:02;101521.41;;;19.31;80.30
73981;BME280;62348;51.412;5.436;2022-08-01T01:59:30;101517.13;;;19.25;80.69
73981;BME280;62348;51.412;5.436;2022-08-01T02:02:00;101515.41;;;19.29;80.32
73981;BME280;62348;51.412;5.436;2022-08-01T02:04:27;101507.19;;;19.29;80.46
73981;BME280;62348;51.412;5.436;2022-08-01T02:06:54;101509.09;;;19.29;80.41
73981;BME280;62348;51.412;5.436;2022-08-01T02:09:21;101512.06;;;19.33;80.02
73981;BME280;62348;51.412;5.436;2022-08-01T02:11:49;101515.41;;;19.29;80.07
73981;BME280;62348;51.412;5.436;2022-08-01T02:14:16;101514.78;;;19.33;80.27
73981;BME280;62348;51.412;5.436;2022-08-01T02:16:47;101513.19;;;19.31;80.34
73981;BME280;62348;51.412;5.436;2022-08-01T02:19:14;101511.75;;;19.34;80.23
73981;BME280;62348;51.412;5.436;2022-08-01T02:21:46;101518.88;;;19.35;80.07
73981;BME280;62348;51.412;5.436;2022-08-01T02:24:16;101512.69;;;19.29;80.64
73981;BME280;62348;51.412;5.436;2022-08-01T02:26:47;101507.78;;;19.26;80.56
73981;BME280;62348;51.412;5.436;2022-08-01T02:29:24;101512.34;;;19.31;80.20
73981;BME280;62348;51.412;5.436;2022-08-01T02:31:53;101515.09;;;19.31;80.36
73981;BME280;62348;51.412;5.436;2022-08-01T02:34:21;101508.00;;;19.30;80.57
73981;BME280;62348;51.412;5.436;2022-08-01T02:36:49;101507.50;;;19.28;80.66
73981;BME280;62348;51.412;5.436;2022-08-01T02:39:16;101514.28;;;19.30;80.41
73981;BME280;62348;51.412;5.436;2022-08-01T02:41:47;101514.59;;;19.29;80.46
73981;BME280;62348;51.412;5.436;2022-08-01T02:44:18;101513.78;;;19.28;80.35
73981;BME280;62348;51.412;5.436;2022-08-01T02:46:53;101503.72;;;19.24;80.40
73981;BME280;62348;51.412;5.436;2022-08-01T02:49:21;101511.53;;;19.30;80.29
73981;BME280;62348;51.412;5.436;2022-08-01T02:51:49;101497.63;;;19.27;80.42
73981;BME280;62348;51.412;5.436;2022-08-01T02:54:18;101508.09;;;19.25;80.64
73981;BME280;62348;51.412;5.436;2022-08-01T02:56:47;101515.22;;;19.26;80.60
73981;BME280;62348;51.412;5.436;2022-08-01T02:59:16;101508.38;;;19.23;80.59
73981;BME280;62348;51.412;5.436;2022-08-01T03:01:44;101514.91;;;19.27;80.30
73981;BME280;62348;51.412;5.436;2022-08-01T03:04:11;101509.94;;;19.29;80.16
73981;BME280;62348;51.412;5.436;2022-08-01T03:06:38;101512.97;;;19.28;80.36
73981;BME280;62348;51.412;5.436;2022-08-01T03:09:05;101510.63;;;19.21;80.67
73981;BME280;62348;51.412;5.436;2022-08-01T03:11:32;101514.78;;;19.19;80.57
73981;BME280;62348;51.412;5.436;2022-08-01T03:14:02;101513.66;;;19.20;80.57
73981;BME280;62348;51.412;5.436;2022-08-01T03:16:29;101514.78;;;19.19;80.54
73981;BME280;62348;51.412;5.436;2022-08-01T03:18:56;101512.03;;;19.19;80.59
73981;BME280;62348;51.412;5.436;2022-08-01T03:21:23;101514.56;;;19.15;80.68
73981;BME280;62348;51.412;5.436;2022-08-01T03:23:50;101516.41;;;19.20;80.39
73981;BME280;62348;51.412;5.436;2022-08-01T03:26:17;101519.75;;;19.17;80.37
73981;BME280;62348;51.412;5.436;2022-08-01T03:28:46;101524.13;;;19.18;80.44
73981;BME280;62348;51.412;5.436;2022-08-01T03:31:13;101520.34;;;19.14;80.27
73981;BME280;62348;51.412;5.436;2022-08-01T03:33:39;101519.25;;;19.15;80.03
73981;BME280;62348;51.412;5.436;2022-08-01T03:36:08;101529.72;;;19.13;80.26
73981;BME280;62348;51.412;5.436;2022-08-01T03:38:37;101522.59;;;19.11;80.07
73981;BME280;62348;51.412;5.436;2022-08-01T03:41:10;101524.03;;;19.09;79.80
73981;BME280;62348;51.412;5.436;2022-08-01T03:43:47;101525.63;;;19.10;79.62
73981;BME280;62348;51.412;5.436;2022-08-01T03:46:19;101527.56;;;19.09;79.75
73981;BME280;62348;51.412;5.436;2022-08-01T03:48:48;101516.38;;;19.06;79.31
73981;BME280;62348;51.412;5.436;2022-08-01T03:51:17;101522.66;;;19.06;79.16
73981;BME280;62348;51.412;5.436;2022-08-01T03:53:45;101523.50;;;19.07;79.20
73981;BME280;62348;51.412;5.436;2022-08-01T03:56:12;101523.22;;;19.08;79.43
73981;BME280;62348;51.412;5.436;2022-08-01T03:58:39;101517.19;;;19.06;79.28
73981;BME280;62348;51.412;5.436;2022-08-01T04:01:07;101519.41;;;19.04;78.89
73981;BME280;62348;51.412;5.436;2022-08-01T04:03:34;101523.50;;;19.07;78.98
73981;BME280;62348;51.412;5.436;2022-08-01T04:06:04;101520.56;;;19.03;78.90
73981;BME280;62348;51.412;5.436;2022-08-01T04:08:39;101521.66;;;19.02;78.78
73981;BME280;62348;51.412;5.436;2022-08-01T04:11:05;101525.22;;;19.03;78.67
73981;BME280;62348;51.412;5.436;2022-08-01T04:13:32;101523.28;;;19.03;78.82
73981;BME280;62348;51.412;5.436;2022-08-01T04:15:58;101531.50;;;19.03;78.83
73981;BME280;62348;51.412;5.436;2022-08-01T04:18:23;101523.88;;;19.00;79.07
73981;BME280;62348;51.412;5.436;2022-08-01T04:20:49;101520.84;;;19.02;79.05
73981;BME280;62348;51.412;5.436;2022-08-01T04:23:17;101529.88;;;19.02;79.27
73981;BME280;62348;51.412;5.436;2022-08-01T04:25:46;101535.47;;;18.97;79.50
73981;BME280;62348;51.412;5.436;2022-08-01T04:28:13;101527.75;;;18.99;79.42
73981;BME280;62348;51.412;5.436;2022-08-01T04:30:44;101528.06;;;18.98;79.49
73981;BME280;62348;51.412;5.436;2022-08-01T04:33:13;101535.75;;;18.96;79.52
73981;BME280;62348;51.412;5.436;2022-08-01T04:35:45;101538.22;;;18.97;79.62
73981;BME280;62348;51.412;5.436;2022-08-01T04:38:13;101528.06;;;18.98;79.95
73981;BME280;62348;51.412;5.436;2022-08-01T04:40:42;101533.25;;;18.99;79.86
73981;BME280;62348;51.412;5.436;2022-08-01T04:43:10;101540.53;;;19.04;79.92
73981;BME280;62348;51.412;5.436;2022-08-01T04:45:36;101544.72;;;19.01;79.89
73981;BME280;62348;51.412;5.436;2022-08-01T04:48:05;101551.00;;;19.02;79.71
73981;BME280;62348;51.412;5.436;2022-08-01T04:50:35;101547.22;;;18.98;80.30
73981;BME280;62348;51.412;5.436;2022-08-01T04:53:00;101557.56;;;19.01;80.23
73981;BME280;62348;51.412;5.436;2022-08-01T04:55:28;101553.72;;;19.02;80.09
73981;BME280;62348;51.412;5.436;2022-08-01T04:57:54;101559.00;;;18.98;80.23
73981;BME280;62348;51.412;5.436;2022-08-01T05:00:19;101559.22;;;19.02;80.07
73981;BME280;62348;51.412;5.436;2022-08-01T05:02:45;101552.63;;;19.03;79.82
73981;BME280;62348;51.412;5.436;2022-08-01T05:05:11;101566.63;;;19.01;80.34
73981;BME280;62348;51.412;5.436;2022-08-01T05:07:37;101565.50;;;19.02;80.03
73981;BME280;62348;51.412;5.436;2022-08-01T05:10:04;101574.56;;;19.03;80.30
73981;BME280;62348;51.412;5.436;2022-08-01T05:12:29;101573.72;;;19.02;80.01
73981;BME280;62348;51.412;5.436;2022-08-01T05:15:00;101574.84;;;19.01;80.19
73981;BME280;62348;51.412;5.436;2022-08-01T05:17:25;101575.06;;;19.05;80.12
73981;BME280;62348;51.412;5.436;2022-08-01T05:19:51;101578.91;;;19.04;80.13
73981;BME280;62348;51.412;5.436;2022-08-01T05:22:16;101580.34;;;19.01;79.99
73981;BME280;62348;51.412;5.436;2022-08-01T05:24:42;101574.22;;;19.04;79.68
73981;BME280;62348;51.412;5.436;2022-08-01T05:27:07;101580.03;;;19.03;79.88
73981;BME280;62348;51.412;5.436;2022-08-01T05:29:34;101580.84;;;19.03;79.79
73981;BME280;62348;51.412;5.436;2022-08-01T05:31:59;101576.47;;;19.02;79.78
73981;BME280;62348;51.412;5.436;2022-08-01T05:34:25;101585.53;;;19.03;79.89
73981;BME280;62348;51.412;5.436;2022-08-01T05:36:51;101581.13;;;19.02;79.63
73981;BME280;62348;51.412;5.436;2022-08-01T05:39:16;101585.81;;;19.01;79.78
73981;BME280;62348;51.412;5.436;2022-08-01T05:41:42;101588.03;;;18.99;79.66
73981;BME280;62348;51.412;5.436;2022-08-01T05:44:08;101581.44;;;19.00;79.70
73981;BME280;62348;51.412;5.436;2022-08-01T05:46:34;101584.97;;;19.01;80.00
73981;BME280;62348;51.412;5.436;2022-08-01T05:49:01;101587.66;;;19.06;78.84
73981;BME280;62348;51.412;5.436;2022-08-01T05:51:27;101578.31;;;19.07;79.01
73981;BME280;62348;51.412;5.436;2022-08-01T05:53:53;101579.63;;;19.09;79.00
73981;BME280;62348;51.412;5.436;2022-08-01T05:56:19;101576.59;;;19.11;79.21
73981;BME280;62348;51.412;5.436;2022-08-01T05:58:45;101573.78;;;19.16;78.68
73981;BME280;62348;51.412;5.436;2022-08-01T06:01:11;101573.38;;;19.23;78.67
73981;BME280;62348;51.412;5.436;2022-08-01T06:03:36;101581.88;;;19.21;78.21
73981;BME280;62348;51.412;5.436;2022-08-01T06:06:02;101581.09;;;19.35;78.06
73981;BME280;62348;51.412;5.436;2022-08-01T06:08:28;101583.75;;;19.40;78.33
73981;BME280;62348;51.412;5.436;2022-08-01T06:10:54;101579.59;;;19.42;78.29
73981;BME280;62348;51.412;5.436;2022-08-01T06:13:19;101578.78;;;19.42;77.84
73981;BME280;62348;51.412;5.436;2022-08-01T06:15:45;101580.41;;;19.43;77.35
73981;BME280;62348;51.412;5.436;2022-08-01T06:18:11;101577.34;;;19.44;76.69
73981;BME280;62348;51.412;5.436;2022-08-01T06:20:36;101575.97;;;19.47;76.91
73981;BME280;62348;51.412;5.436;2022-08-01T06:23:02;101576.03;;;19.56;76.77
73981;BME280;62348;51.412;5.436;2022-08-01T06:25:28;101569.56;;;19.65;76.17
73981;BME280;62348;51.412;5.436;2022-08-01T06:27:53;101572.13;;;19.89;75.64
73981;BME280;62348;51.412;5.436;2022-08-01T06:30:19;101578.47;;;20.26;74.39
73981;BME280;62348;51.412;5.436;2022-08-01T06:32:44;101585.72;;;20.59;73.08
73981;BME280;62348;51.412;5.436;2022-08-01T06:35:10;101571.13;;;20.95;71.40
73981;BME280;62348;51.412;5.436;2022-08-01T06:37:35;101581.28;;;20.94;71.54
73981;BME280;62348;51.412;5.436;2022-08-01T06:40:05;101584.56;;;20.96;71.14
73981;BME280;62348;51.412;5.436;2022-08-01T06:42:32;101594.19;;;20.85;71.87
73981;BME280;62348;51.412;5.436;2022-08-01T06:45:04;101599.66;;;20.62;72.13
73981;BME280;62348;51.412;5.436;2022-08-01T06:47:30;101593.06;;;20.50;72.87
73981;BME280;62348;51.412;5.436;2022-08-01T06:49:56;101600.00;;;20.47;72.43
73981;BME280;62348;51.412;5.436;2022-08-01T06:52:22;101592.97;;;20.41;73.21
73981;BME280;62348;51.412;5.436;2022-08-01T06:54:47;101601.34;;;20.36;73.42
73981;BME280;62348;51.412;5.436;2022-08-01T06:57:13;101597.56;;;20.32;72.69
73981;BME280;62348;51.412;5.436;2022-08-01T06:59:38;101606.53;;;20.23;72.61
73981;BME280;62348;51.412;5.436;2022-08-01T07:02:03;101599.28;;;20.41;71.09
73981;BME280;62348;51.412;5.436;2022-08-01T07:04:29;101598.06;;;20.47;71.33
73981;BME280;62348;51.412;5.436;2022-08-01T07:06:55;101609.72;;;20.53;70.97
73981;BME280;62348;51.412;5.436;2022-08-01T07:09:21;101607.69;;;20.45;71.00
73981;BME280;62348;51.412;5.436;2022-08-01T07:11:46;101606.09;;;20.44;71.46
73981;BME280;62348;51.412;5.436;2022-08-01T07:14:11;101606.19;;;20.39;70.82
73981;BME280;62348;51.412;5.436;2022-08-01T07:16:37;101603.75;;;20.37;71.56
73981;BME280;62348;51.412;5.436;2022-08-01T07:19:02;101603.59;;;20.34;71.57
73981;BME280;62348;51.412;5.436;2022-08-01T07:21:28;101605.09;;;20.26;71.88
73981;BME280;62348;51.412;5.436;2022-08-01T07:23:53;101610.00;;;20.29;71.71
73981;BME280;62348;51.412;5.436;2022-08-01T07:26:18;101609.47;;;20.27;71.74
73981;BME280;62348;51.412;5.436;2022-08-01T07:28:45;101610.78;;;20.29;71.74
73981;BME280;62348;51.412;5.436;2022-08-01T07:31:10;101603.88;;;20.32;72.19
73981;BME280;62348;51.412;5.436;2022-08-01T07:33:36;101603.25;;;20.49;72.23
73981;BME280;62348;51.412;5.436;2022-08-01T07:36:02;101613.53;;;20.43;71.26
73981;BME280;62348;51.412;5.436;2022-08-01T07:38:28;101611.16;;;20.51;70.40
73981;BME280;62348;51.412;5.436;2022-08-01T07:40:54;101620.09;;;20.70;70.11
73981;BME280;62348;51.412;5.436;2022-08-01T07:43:20;101621.00;;;21.02;69.31
73981;BME280;62348;51.412;5.436;2022-08-01T07:45:45;101619.41;;;21.10;68.43
73981;BME280;62348;51.412;5.436;2022-08-01T07:48:10;101616.81;;;21.36;67.87
73981;BME280;62348;51.412;5.436;2022-08-01T07:50:36;101619.72;;;21.62;66.96
73981;BME280;62348;51.412;5.436;2022-08-01T07:53:01;101621.28;;;21.86;66.07
73981;BME280;62348;51.412;5.436;2022-08-01T07:55:28;101623.59;;;22.01;65.40
73981;BME280;62348;51.412;5.436;2022-08-01T07:57:53;101614.84;;;21.99;65.11
73981;BME280;62348;51.412;5.436;2022-08-01T08:00:19;101620.00;;;22.00;65.22
73981;BME280;62348;51.412;5.436;2022-08-01T08:02:44;101619.72;;;22.19;64.11
73981;BME280;62348;51.412;5.436;2022-08-01T08:05:10;101624.97;;;22.30;64.14
73981;BME280;62348;51.412;5.436;2022-08-01T08:07:36;101629.84;;;22.33;64.25
73981;BME280;62348;51.412;5.436;2022-08-01T08:10:02;101635.69;;;22.31;63.41
73981;BME280;62348;51.412;5.436;2022-08-01T08:12:28;101624.63;;;22.22;64.21
73981;BME280;62348;51.412;5.436;2022-08-01T08:14:53;101624.19;;;22.38;64.24
73981;BME280;62348;51.412;5.436;2022-08-01T08:17:19;101640.38;;;22.31;64.20
73981;BME280;62348;51.412;5.436;2022-08-01T08:19:44;101642.56;;;22.11;63.96
73981;BME280;62348;51.412;5.436;2022-08-01T08:22:09;101636.53;;;21.92;64.63
73981;BME280;62348;51.412;5.436;2022-08-01T08:24:36;101635.13;;;21.72;64.92
73981;BME280;62348;51.412;5.436;2022-08-01T08:27:03;101638.63;;;21.55;65.59
73981;BME280;62348;51.412;5.436;2022-08-01T08:29:29;101635.44;;;21.39;65.73
73981;BME280;62348;51.412;5.436;2022-08-01T08:31:57;101642.06;;;21.38;65.81
73981;BME280;62348;51.412;5.436;2022-08-01T08:34:23;101646.25;;;21.58;65.13
73981;BME280;62348;51.412;5.436;2022-08-01T08:36:49;101642.03;;;21.92;65.22
73981;BME280;62348;51.412;5.436;2022-08-01T08:39:15;101644.03;;;22.17;63.76
73981;BME280;62348;51.412;5.436;2022-08-01T08:41:41;101636.00;;;22.30;63.17
73981;BME280;62348;51.412;5.436;2022-08-01T08:44:08;101634.25;;;22.42;63.04
73981;BME280;62348;51.412;5.436;2022-08-01T08:46:43;101636.69;;;22.61;63.39
73981;BME280;62348;51.412;5.436;2022-08-01T08:49:10;101631.16;;;22.70;62.83
73981;BME280;62348;51.412;5.436;2022-08-01T08:51:39;101632.47;;;22.73;60.83
73981;BME280;62348;51.412;5.436;2022-08-01T08:54:06;101641.88;;;22.72;61.80
73981;BME280;62348;51.412;5.436;2022-08-01T08:56:34;101637.97;;;22.81;61.05
73981;BME280;62348;51.412;5.436;2022-08-01T08:59:00;101635.88;;;22.87;60.30
73981;BME280;62348;51.412;5.436;2022-08-01T09:01:26;101643.50;;;22.64;59.85
73981;BME280;62348;51.412;5.436;2022-08-01T09:03:53;101645.13;;;22.65;60.12
73981;BME280;62348;51.412;5.436;2022-08-01T09:06:18;101639.13;;;22.54;60.89
73981;BME280;62348;51.412;5.436;2022-08-01T09:08:45;101642.69;;;22.46;61.12
73981;BME280;62348;51.412;5.436;2022-08-01T09:11:11;101645.09;;;22.39;61.90
73981;BME280;62348;51.412;5.436;2022-08-01T09:13:36;101648.50;;;22.45;61.72
73981;BME280;62348;51.412;5.436;2022-08-01T09:16:03;101643.00;;;22.62;61.83
73981;BME280;62348;51.412;5.436;2022-08-01T09:18:37;101641.25;;;22.75;61.72
73981;BME280;62348;51.412;5.436;2022-08-01T09:23:44;101644.00;;;23.10;62.03
73981;BME280;62348;51.412;5.436;2022-08-01T09:26:14;101651.94;;;23.11;59.93
73981;BME280;62348;51.412;5.436;2022-08-01T09:28:41;101648.50;;;23.14;59.09
73981;BME280;62348;51.412;5.436;2022-08-01T09:31:13;101654.03;;;23.14;57.97
73981;BME280;62348;51.412;5.436;2022-08-01T09:36:17;101651.31;;;23.62;57.40
73981;BME280;62348;51.412;5.436;2022-08-01T09:38:43;101652.25;;;23.74;56.16
73981;BME280;62348;51.412;5.436;2022-08-01T09:41:08;101657.56;;;23.88;55.63
73981;BME280;62348;51.412;5.436;2022-08-01T09:43:36;101652.56;;;23.90;55.26
73981;BME280;62348;51.412;5.436;2022-08-01T09:46:09;101654.13;;;24.00;55.84
73981;BME280;62348;51.412;5.436;2022-08-01T09:48:38;101643.72;;;23.97;54.56
73981;BME280;62348;51.412;5.436;2022-08-01T09:51:05;101650.28;;;23.92;55.56
73981;BME280;62348;51.412;5.436;2022-08-01T09:53:44;101641.06;;;23.71;56.84
73981;BME280;62348;51.412;5.436;2022-08-01T09:56:11;101655.53;;;23.68;58.37
73981;BME280;62348;51.412;5.436;2022-08-01T09:58:54;101661.50;;;23.78;57.88
73981;BME280;62348;51.412;5.436;2022-08-01T10:01:23;101652.59;;;23.82;55.55
73981;BME280;62348;51.412;5.436;2022-08-01T10:06:29;101642.94;;;23.96;55.33
73981;BME280;62348;51.412;5.436;2022-08-01T10:08:55;101641.13;;;24.01;54.89
73981;BME280;62348;51.412;5.436;2022-08-01T10:11:20;101643.44;;;24.20;52.24
73981;BME280;62348;51.412;5.436;2022-08-01T10:13:47;101642.72;;;24.31;51.82
73981;BME280;62348;51.412;5.436;2022-08-01T10:16:14;101646.56;;;24.39;51.51
73981;BME280;62348;51.412;5.436;2022-08-01T10:18:40;101650.41;;;24.47;52.06
73981;BME280;62348;51.412;5.436;2022-08-01T10:21:06;101650.28;;;24.43;52.18
73981;BME280;62348;51.412;5.436;2022-08-01T10:23:36;101650.09;;;24.48;53.49
73981;BME280;62348;51.412;5.436;2022-08-01T10:26:04;101656.59;;;24.52;52.89
73981;BME280;62348;51.412;5.436;2022-08-01T10:28:31;101654.66;;;24.53;51.75
73981;BME280;62348;51.412;5.436;2022-08-01T10:30:57;101644.91;;;24.68;51.14
73981;BME280;62348;51.412;5.436;2022-08-01T10:33:23;101648.16;;;24.70;50.11
73981;BME280;62348;51.412;5.436;2022-08-01T10:35:50;101642.41;;;24.75;50.54
73981;BME280;62348;51.412;5.436;2022-08-01T10:38:16;101636.81;;;24.84;50.47
73981;BME280;62348;51.412;5.436;2022-08-01T10:40:42;101648.75;;;24.75;48.64
73981;BME280;62348;51.412;5.436;2022-08-01T10:43:12;101647.34;;;24.69;50.52
73981;BME280;62348;51.412;5.436;2022-08-01T10:45:39;101645.81;;;24.51;51.07
73981;BME280;62348;51.412;5.436;2022-08-01T10:48:29;101640.03;;;24.44;53.16
73981;BME280;62348;51.412;5.436;2022-08-01T10:50:59;101643.13;;;24.21;52.00
73981;BME280;62348;51.412;5.436;2022-08-01T10:53:26;101634.63;;;24.26;52.40
73981;BME280;62348;51.412;5.436;2022-08-01T11:03:44;101642.34;;;24.42;52.68
73981;BME280;62348;51.412;5.436;2022-08-01T11:06:17;101642.66;;;24.40;53.04
73981;BME280;62348;51.412;5.436;2022-08-01T11:08:51;101653.31;;;24.50;55.08
73981;BME280;62348;51.412;5.436;2022-08-01T11:11:17;101653.75;;;24.61;55.66
73981;BME280;62348;51.412;5.436;2022-08-01T11:14:03;101652.88;;;24.69;55.07
73981;BME280;62348;51.412;5.436;2022-08-01T11:16:34;101663.16;;;24.39;54.70
73981;BME280;62348;51.412;5.436;2022-08-01T11:19:01;101664.28;;;24.17;55.36
73981;BME280;62348;51.412;5.436;2022-08-01T11:27:31;101671.09;;;23.72;56.71
73981;BME280;62348;51.412;5.436;2022-08-01T11:32:54;101675.63;;;23.86;57.44
73981;BME280;62348;51.412;5.436;2022-08-01T11:35:36;101687.16;;;23.88;57.10
73981;BME280;62348;51.412;5.436;2022-08-01T11:38:32;101682.28;;;23.76;57.26
73981;BME280;62348;51.412;5.436;2022-08-01T11:46:19;101685.94;;;23.50;58.96
73981;BME280;62348;51.412;5.436;2022-08-01T11:48:45;101686.75;;;23.51;57.44
73981;BME280;62348;51.412;5.436;2022-08-01T11:51:15;101695.22;;;23.37;57.41
73981;BME280;62348;51.412;5.436;2022-08-01T11:53:47;101684.00;;;23.33;58.09
73981;BME280;62348;51.412;5.436;2022-08-01T11:56:15;101682.72;;;23.39;58.24
73981;BME280;62348;51.412;5.436;2022-08-01T11:58:41;101691.66;;;23.45;58.06
73981;BME280;62348;51.412;5.436;2022-08-01T12:01:12;101694.41;;;23.36;57.82
73981;BME280;62348;51.412;5.436;2022-08-01T12:03:37;101697.34;;;23.31;56.60
73981;BME280;62348;51.412;5.436;2022-08-01T12:06:03;101699.81;;;23.24;57.24
73981;BME280;62348;51.412;5.436;2022-08-01T12:08:32;101700.31;;;23.09;56.30
73981;BME280;62348;51.412;5.436;2022-08-01T12:11:00;101704.34;;;23.11;57.24
73981;BME280;62348;51.412;5.436;2022-08-01T12:13:26;101702.06;;;23.05;56.51
73981;BME280;62348;51.412;5.436;2022-08-01T12:15:52;101700.94;;;23.06;57.33
73981;BME280;62348;51.412;5.436;2022-08-01T12:18:18;101703.34;;;22.98;56.87
73981;BME280;62348;51.412;5.436;2022-08-01T12:20:44;101701.09;;;22.92;56.70
73981;BME280;62348;51.412;5.436;2022-08-01T12:23:15;101695.06;;;22.98;56.95
73981;BME280;62348;51.412;5.436;2022-08-01T12:25:41;101696.22;;;23.06;57.64
73981;BME280;62348;51.412;5.436;2022-08-01T12:28:10;101696.72;;;23.08;56.40
73981;BME280;62348;51.412;5.436;2022-08-01T12:30:37;101701.91;;;23.18;56.82
73981;BME280;62348;51.412;5.436;2022-08-01T12:33:17;101707.25;;;23.24;56.95
73981;BME280;62348;51.412;5.436;2022-08-01T12:35:42;101711.00;;;23.28;56.13
73981;BME280;62348;51.412;5.436;2022-08-01T12:38:19;101717.47;;;23.32;56.13
73981;BME280;62348;51.412;5.436;2022-08-01T12:40:50;101701.56;;;23.29;54.08
73981;BME280;62348;51.412;5.436;2022-08-01T12:43:17;101704.16;;;23.25;54.50
73981;BME280;62348;51.412;5.436;2022-08-01T12:45:44;101711.63;;;23.25;55.18
73981;BME280;62348;51.412;5.436;2022-08-01T12:48:12;101704.47;;;23.24;55.44
73981;BME280;62348;51.412;5.436;2022-08-01T12:50:41;101709.19;;;23.32;54.99
73981;BME280;62348;51.412;5.436;2022-08-01T12:53:07;101707.25;;;23.41;54.97
73981;BME280;62348;51.412;5.436;2022-08-01T12:55:33;101695.53;;;23.44;54.21
73981;BME280;62348;51.412;5.436;2022-08-01T12:58:10;101702.50;;;23.50;54.30
73981;BME280;62348;51.412;5.436;2022-08-01T13:00:37;101699.88;;;23.54;53.72
73981;BME280;62348;51.412;5.436;2022-08-01T13:03:06;101700.25;;;23.52;53.72
73981;BME280;62348;51.412;5.436;2022-08-01T13:06:28;101697.31;;;23.49;53.88
73981;BME280;62348;51.412;5.436;2022-08-01T13:08:34;101704.13;;;23.51;53.26
73981;BME280;62348;51.412;5.436;2022-08-01T13:11:05;101694.09;;;23.38;52.38
73981;BME280;62348;51.412;5.436;2022-08-01T13:13:39;101691.16;;;23.34;52.99
73981;BME280;62348;51.412;5.436;2022-08-01T13:16:06;101683.69;;;23.35;53.05
73981;BME280;62348;51.412;5.436;2022-08-01T13:18:33;101684.84;;;23.34;53.67
73981;BME280;62348;51.412;5.436;2022-08-01T13:21:19;101688.72;;;23.42;53.80
73981;BME280;62348;51.412;5.436;2022-08-01T13:24:22;101694.41;;;23.45;53.69
73981;BME280;62348;51.412;5.436;2022-08-01T13:26:48;101691.97;;;23.35;51.85
73981;BME280;62348;51.412;5.436;2022-08-01T13:29:16;101693.78;;;23.31;53.15
73981;BME280;62348;51.412;5.436;2022-08-01T13:31:43;101694.25;;;23.33;51.88